Time;durP1;ratioP1;P1;durP2;ratioP2;P2;SDS_P1;SDS_P2;PMS_P1;PMS_P2;Temp;Humidity;BMP_temperature;BMP_pressure;BME280_temperature;BME280_humidity;BME280_pressure;Samples;Min_cycle;Max_cycle;Signal;HPM_P1;HPM_P2
2022/04/12 00:00:02;;;;;;;0.40;0.40;;;;;;;1.81;100.00;97942.44;6218601;23;19999;-82
2022/04/12 00:02:28;;;;;;;0.90;0.82;;;;;;;1.73;100.00;97947.00;6219570;23;20008;-83
2022/04/12 00:04:54;;;;;;;0.30;0.30;;;;;;;1.63;100.00;97938.44;6218501;23;20031;-82
2022/04/12 00:07:20;;;;;;;0.20;0.20;;;;;;;1.57;100.00;97928.84;6218133;23;20016;-82
2022/04/12 00:09:46;;;;;;;3.35;3.15;;;;;;;1.60;100.00;97936.69;6218593;23;20459;-82
2022/04/12 00:12:11;;;;;;;0.30;0.30;;;;;;;1.58;100.00;97951.69;6218504;23;20008;-82
2022/04/12 00:14:37;;;;;;;0.40;0.40;;;;;;;1.64;100.00;97943.66;6244057;23;20007;-83
2022/04/12 00:19:47;;;;;;;1.05;1.05;;;;;;;1.44;100.00;97929.16;6244219;23;20090;-83
2022/04/12 00:22:12;;;;;;;0.30;0.30;;;;;;;1.44;100.00;97940.56;6218396;23;19996;-83
2022/04/12 00:24:38;;;;;;;0.20;0.20;;;;;;;1.50;100.00;97940.44;6218540;23;20448;-83
2022/04/12 00:27:03;;;;;;;0.20;0.20;;;;;;;1.49;100.00;97937.81;6218547;23;20036;-83
2022/04/12 00:29:29;;;;;;;0.20;0.20;;;;;;;1.43;100.00;97925.63;6218076;23;20008;-83
2022/04/12 00:31:55;;;;;;;0.20;0.20;;;;;;;1.54;100.00;97941.22;6218300;23;20004;-83
2022/04/12 00:34:20;;;;;;;1.25;1.20;;;;;;;1.40;100.00;97924.84;6218126;23;20531;-84
2022/04/12 00:36:46;;;;;;;0.30;0.30;;;;;;;1.35;100.00;97924.06;6218233;23;20352;-83
2022/04/12 00:39:12;;;;;;;0.30;0.30;;;;;;;1.36;100.00;97926.66;6218370;23;20004;-83
2022/04/12 00:41:37;;;;;;;0.30;0.30;;;;;;;1.33;100.00;97910.03;6219114;23;20027;-82
2022/04/12 00:44:03;;;;;;;0.40;0.40;;;;;;;1.43;100.00;97914.22;6218495;23;20456;-83
2022/04/12 00:46:29;;;;;;;0.30;0.30;;;;;;;1.34;100.00;97914.41;6218156;23;20007;-83
2022/04/12 00:48:55;;;;;;;0.55;0.55;;;;;;;1.30;100.00;97918.88;6218194;23;20026;-83
2022/04/12 00:51:20;;;;;;;0.20;0.20;;;;;;;1.38;100.00;97922.25;6218043;23;20408;-83
2022/04/12 00:53:48;;;;;;;0.30;0.30;;;;;;;1.44;100.00;97930.03;6243349;23;20333;-83
2022/04/12 00:56:15;;;;;;;0.20;0.20;;;;;;;1.26;100.00;97927.72;6218979;23;20361;-83
2022/04/12 00:58:45;;;;;;;0.35;0.35;;;;;;;1.24;100.00;97926.88;6218150;23;20011;-83
2022/04/12 01:01:13;;;;;;;0.30;0.30;;;;;;;1.25;100.00;97923.38;6219135;23;20008;-83
2022/04/12 01:03:39;;;;;;;0.20;0.20;;;;;;;1.20;100.00;97912.03;6218758;23;20004;-83
2022/04/12 01:06:05;;;;;;;0.82;0.82;;;;;;;1.25;100.00;97918.09;6218452;23;20031;-83
2022/04/12 01:08:31;;;;;;;0.20;0.20;;;;;;;1.32;100.00;97919.72;6218376;23;20012;-83
2022/04/12 01:10:59;;;;;;;0.63;0.50;;;;;;;1.24;100.00;97916.34;6218914;23;20073;-83
2022/04/12 01:13:24;;;;;;;0.30;0.30;;;;;;;1.14;100.00;97912.16;6219145;23;20012;-83
2022/04/12 01:15:50;;;;;;;0.30;0.30;;;;;;;1.13;100.00;97917.47;6218371;23;20069;-83
2022/04/12 01:18:16;;;;;;;0.57;0.57;;;;;;;1.14;100.00;97922.69;6218209;23;20093;-82
2022/04/12 01:20:41;;;;;;;0.20;0.20;;;;;;;1.17;100.00;97925.25;6243559;23;20008;-83
2022/04/12 01:23:20;;;;;;;1.65;1.55;;;;;;;1.11;100.00;97932.44;6218258;23;20020;-82
2022/04/12 01:25:46;;;;;;;0.30;0.30;;;;;;;1.04;100.00;97919.38;6218325;23;20004;-82
2022/04/12 01:28:12;;;;;;;2.28;1.55;;;;;;;1.08;100.00;97930.69;6218300;23;20008;-83
2022/04/12 01:30:38;;;;;;;0.30;0.30;;;;;;;1.04;100.00;97921.16;6217921;23;20008;-82
2022/04/12 01:33:04;;;;;;;0.22;0.22;;;;;;;0.97;100.00;97924.78;6218592;23;20069;-82
2022/04/12 01:35:30;;;;;;;0.28;0.28;;;;;;;0.91;100.00;97923.13;6218369;23;20004;-83
2022/04/12 01:37:56;;;;;;;0.20;0.20;;;;;;;0.98;100.00;97930.03;6218225;23;20030;-83
2022/04/12 01:40:22;;;;;;;1.23;1.23;;;;;;;0.98;100.00;97929.16;6218283;23;20456;-83
2022/04/12 01:42:47;;;;;;;0.20;0.20;;;;;;;1.00;100.00;97917.69;6218173;23;20451;-83
2022/04/12 01:45:13;;;;;;;0.32;0.32;;;;;;;0.85;100.00;97915.34;6218345;23;20011;-82
2022/04/12 01:47:39;;;;;;;0.43;0.43;;;;;;;0.85;100.00;97907.44;6217791;23;20008;-82
2022/04/12 01:50:06;;;;;;;0.20;0.20;;;;;;;0.87;100.00;97913.53;6218436;23;20008;-82
2022/04/12 01:52:32;;;;;;;0.30;0.30;;;;;;;0.94;100.00;97922.19;6218469;23;20389;-83
2022/04/12 01:54:58;;;;;;;0.30;0.30;;;;;;;0.93;100.00;97920.44;6243663;23;20011;-82
2022/04/12 01:57:24;;;;;;;0.30;0.30;;;;;;;0.96;100.00;97915.13;6218187;23;20011;-82
2022/04/12 01:59:49;;;;;;;0.20;0.20;;;;;;;0.90;100.00;97928.41;6218174;23;20091;-82
2022/04/12 02:02:15;;;;;;;1.63;1.55;;;;;;;0.81;100.00;97923.31;6218587;23;20008;-82
2022/04/12 02:04:40;;;;;;;0.45;0.45;;;;;;;0.74;100.00;97924.31;6217898;23;20070;-83
2022/04/12 02:07:07;;;;;;;0.30;0.30;;;;;;;0.74;100.00;97913.81;6218430;23;20044;-82
2022/04/12 02:09:32;;;;;;;0.40;0.40;;;;;;;0.67;100.00;97934.09;6218054;23;20004;-82
2022/04/12 02:11:58;;;;;;;0.45;0.45;;;;;;;0.67;100.00;97931.47;6217566;23;20008;-82
2022/04/12 02:14:24;;;;;;;0.70;0.70;;;;;;;0.58;100.00;97923.72;6218383;23;20452;-82
2022/04/12 02:16:50;;;;;;;0.38;0.38;;;;;;;0.58;100.00;97920.22;6218102;23;20012;-82
2022/04/12 02:19:15;;;;;;;3.90;3.58;;;;;;;0.55;100.00;97919.34;6218005;23;20000;-81
2022/04/12 02:21:41;;;;;;;0.30;0.30;;;;;;;0.52;100.00;97914.13;6217984;23;20421;-83
2022/04/12 02:24:07;;;;;;;0.30;0.30;;;;;;;0.54;100.00;97922.03;6218570;23;20004;-83
2022/04/12 02:26:33;;;;;;;0.30;0.30;;;;;;;0.51;100.00;97908.91;6218172;23;20458;-84
2022/04/12 02:28:58;;;;;;;4.35;4.05;;;;;;;0.48;100.00;97909.84;6243494;23;20103;-83
2022/04/12 02:31:24;;;;;;;0.30;0.30;;;;;;;0.54;100.00;97916.75;6218109;23;20091;-83
2022/04/12 02:33:49;;;;;;;0.50;0.50;;;;;;;0.55;100.00;97914.09;6217779;23;20004;-83
2022/04/12 02:36:15;;;;;;;7.13;6.50;;;;;;;0.53;100.00;97900.09;6218769;23;20465;-82
2022/04/12 02:38:41;;;;;;;0.50;0.50;;;;;;;0.52;100.00;97908.03;6219073;23;20337;-84
2022/04/12 02:41:06;;;;;;;0.30;0.30;;;;;;;0.55;100.00;97903.56;6243375;23;20019;-83
2022/04/12 02:43:32;;;;;;;0.30;0.30;;;;;;;0.46;100.00;97911.59;6217915;23;20004;-83
2022/04/12 02:45:58;;;;;;;2.58;1.65;;;;;;;0.42;100.00;97909.94;6218347;23;20000;-83
2022/04/12 02:48:24;;;;;;;1.48;1.38;;;;;;;0.43;100.00;97905.56;6218447;23;20015;-82
2022/04/12 02:50:50;;;;;;;0.63;0.63;;;;;;;0.50;100.00;97913.31;6217908;23;20456;-82
2022/04/12 02:53:15;;;;;;;0.30;0.30;;;;;;;0.53;100.00;97910.63;6218315;23;20024;-82
2022/04/12 02:55:41;;;;;;;0.40;0.40;;;;;;;0.50;100.00;97915.06;6218153;23;20008;-82
2022/04/12 02:58:07;;;;;;;0.20;0.20;;;;;;;0.47;100.00;97915.13;6218216;23;20004;-82
2022/04/12 03:00:32;;;;;;;0.30;0.30;;;;;;;0.41;100.00;97907.31;6218140;23;20082;-81
2022/04/12 03:02:58;;;;;;;2.15;2.05;;;;;;;0.37;100.00;97922.28;6217998;23;20011;-82
2022/04/12 03:05:23;;;;;;;0.30;0.30;;;;;;;0.32;100.00;97926.75;6218416;23;20008;-81
2022/04/12 03:07:49;;;;;;;0.60;0.60;;;;;;;0.29;100.00;97925.94;6217715;23;20034;-82
2022/04/12 03:10:15;;;;;;;0.30;0.30;;;;;;;0.23;100.00;97905.84;6218676;23;20004;-82
2022/04/12 03:12:40;;;;;;;0.30;0.30;;;;;;;0.12;100.00;97897.28;6218730;23;20008;-82
2022/04/12 03:15:08;;;;;;;18.15;2.17;;;;;;;0.10;100.00;97898.16;6219091;23;20046;-82
2022/04/12 03:17:34;;;;;;;0.40;0.40;;;;;;;0.27;100.00;97922.47;6218620;23;20456;-81
2022/04/12 03:20:00;;;;;;;0.30;0.30;;;;;;;0.02;100.00;97890.41;6219395;23;20061;-82
2022/04/12 03:22:25;;;;;;;0.30;0.30;;;;;;;0.22;100.00;97913.75;6219881;23;20042;-80
2022/04/12 03:24:51;;;;;;;0.30;0.30;;;;;;;0.26;100.00;97918.97;6219160;23;20003;-82
2022/04/12 03:27:17;;;;;;;0.30;0.30;;;;;;;0.22;100.00;97922.53;6244714;23;20008;-82
2022/04/12 03:29:42;;;;;;;0.30;0.30;;;;;;;0.08;100.00;97892.06;6220480;23;20473;-82
2022/04/12 03:32:08;;;;;;;0.30;0.30;;;;;;;0.15;100.00;97905.13;6220095;23;20004;-81
2022/04/12 03:34:36;;;;;;;0.30;0.30;;;;;;;0.11;100.00;97906.06;6219909;23;20015;-82
2022/04/12 03:37:01;;;;;;;0.30;0.30;;;;;;;0.19;100.00;97922.56;6221028;23;20008;-84
2022/04/12 03:39:33;;;;;;;0.30;0.30;;;;;;;0.23;100.00;97915.50;6221888;23;20067;-84
2022/04/12 03:41:58;;;;;;;1.63;1.38;;;;;;;0.22;100.00;97919.88;6220840;23;20016;-79
2022/04/12 03:44:24;;;;;;;0.40;0.40;;;;;;;0.22;100.00;97925.16;6245659;23;20437;-83
2022/04/12 03:46:49;;;;;;;0.30;0.30;;;;;;;0.24;100.00;97918.13;6221947;23;20000;-82
2022/04/12 03:49:15;;;;;;;0.30;0.30;;;;;;;0.11;100.00;97890.28;6221197;23;20008;-80
2022/04/12 03:54:30;;;;;;;0.30;0.30;;;;;;;0.33;100.00;97935.53;6216408;23;20004;-84
2022/04/12 03:57:02;;;;;;;0.47;0.47;;;;;;;0.22;100.00;97935.66;6222065;23;20031;-81
2022/04/12 03:59:28;;;;;;;0.47;0.47;;;;;;;0.33;100.00;97941.66;6221172;23;20012;-82
2022/04/12 04:01:53;;;;;;;0.77;0.77;;;;;;;0.21;100.00;97915.53;6221104;23;20087;-83
2022/04/12 04:04:19;;;;;;;0.30;0.30;;;;;;;0.02;100.00;97893.03;6221224;23;20011;-83
2022/04/12 04:06:45;;;;;;;0.40;0.40;;;;;;;0.16;100.00;97935.75;6220844;23;20008;-83
2022/04/12 04:09:11;;;;;;;0.68;0.68;;;;;;;0.06;100.00;97918.41;6219861;23;20003;-83
2022/04/12 04:11:40;;;;;;;2.72;1.98;;;;;;;0.19;100.00;97940.97;6220250;23;20023;-83
2022/04/12 04:14:12;;;;;;;1.88;1.75;;;;;;;0.19;100.00;97930.47;6221447;23;20008;-83
2022/04/12 04:16:41;;;;;;;;;;;;;;;0.46;100.00;97953.69;6247349;23;20463;-83
2022/04/12 04:19:09;;;;;;;0.30;0.30;;;;;;;0.42;100.00;97938.88;6222165;23;19904;-82
2022/04/12 04:21:38;;;;;;;0.40;0.40;;;;;;;0.59;100.00;97961.41;6244292;23;20015;-83
2022/04/12 04:24:04;;;;;;;1.92;1.83;;;;;;;0.59;100.00;97950.88;6219669;23;20345;-79
2022/04/12 04:26:30;;;;;;;0.82;0.82;;;;;;;0.56;100.00;97946.53;6241552;23;20475;-78
2022/04/12 04:28:56;;;;;;;3.75;1.30;;;;;;;0.57;100.00;97936.88;6242275;23;20004;-78
2022/04/12 04:31:22;;;;;;;1.17;1.15;;;;;;;0.63;100.00;97949.94;6244344;23;20087;-78
2022/04/12 04:33:51;;;;;;;3.25;3.03;;;;;;;0.73;100.00;97962.06;6246460;23;20052;-82
2022/04/12 04:36:17;;;;;;;0.80;0.80;;;;;;;0.80;100.00;97955.81;6246407;23;20554;-82
2022/04/12 04:38:45;;;;;;;1.70;1.65;;;;;;;0.84;100.00;97939.03;6221805;23;20008;-83
2022/04/12 04:41:11;;;;;;;1.35;1.27;;;;;;;0.91;100.00;97938.06;6219747;23;20020;-82
2022/04/12 04:43:36;;;;;;;0.88;0.88;;;;;;;0.99;100.00;97926.47;6246221;23;20054;-81
2022/04/12 04:46:02;;;;;;;1.20;1.20;;;;;;;1.34;100.00;97980.28;6220207;23;20069;-81
2022/04/12 04:48:28;;;;;;;1.48;1.40;;;;;;;1.37;100.00;97970.56;6220080;23;20004;-82
2022/04/12 04:50:53;;;;;;;0.30;0.30;;;;;;;1.39;100.00;97962.59;6246477;23;20003;-82
2022/04/12 04:53:19;;;;;;;0.30;0.30;;;;;;;1.68;100.00;97973.47;6220203;23;20083;-83
2022/04/12 04:55:46;;;;;;;0.30;0.30;;;;;;;2.55;100.00;97968.00;6219213;23;20004;-82
2022/04/12 04:58:11;;;;;;;0.20;0.20;;;;;;;3.70;98.54;97962.38;6244682;23;20421;-84
2022/04/12 05:00:37;;;;;;;0.20;0.20;;;;;;;4.66;87.67;97968.28;6219134;23;20019;-82
2022/04/12 05:03:04;;;;;;;0.30;0.30;;;;;;;5.66;80.85;97974.63;6244401;23;20436;-84
2022/04/12 05:05:30;;;;;;;0.13;0.13;;;;;;;6.18;76.53;97976.25;6218888;23;20027;-84
2022/04/12 05:07:56;;;;;;;0.20;0.20;;;;;;;6.03;73.77;97980.34;6219395;23;20083;-82
2022/04/12 05:10:32;;;;;;;0.10;0.10;;;;;;;6.16;73.29;97978.09;6243795;23;20008;-83
2022/04/12 05:12:59;;;;;;;0.10;0.10;;;;;;;6.34;71.26;97972.06;6218385;23;20008;-83
2022/04/12 05:15:25;;;;;;;0.15;0.15;;;;;;;6.60;70.45;97984.38;6218564;23;20012;-82
2022/04/12 05:17:51;;;;;;;1.25;1.15;;;;;;;6.81;68.48;97963.13;6218399;23;20459;-82
2022/04/12 05:20:18;;;;;;;0.10;0.10;;;;;;;6.84;67.86;97970.09;6243734;23;20008;-82
2022/04/12 05:22:44;;;;;;;0.10;0.10;;;;;;;6.83;67.71;97974.53;6218203;23;20000;-83
2022/04/12 05:25:10;;;;;;;0.10;0.10;;;;;;;7.23;66.07;97954.31;6218450;23;20448;-82
2022/04/12 05:27:35;;;;;;;0.20;0.20;;;;;;;7.83;64.19;97964.97;6217434;23;20015;-83
2022/04/12 05:30:03;;;;;;;0.20;0.20;;;;;;;8.91;60.09;97944.78;6242508;23;20007;-83
2022/04/12 05:32:28;;;;;;;0.52;0.52;;;;;;;10.17;55.82;97936.47;6217337;23;20066;-82
2022/04/12 05:34:54;;;;;;;0.05;0.05;;;;;;;11.85;50.79;97928.50;6218481;23;20008;-82
2022/04/12 05:37:19;;;;;;;0.85;0.43;;;;;;;12.17;47.62;97916.69;6243209;23;20035;-84
2022/04/12 05:39:45;;;;;;;0.10;0.10;;;;;;;13.07;45.71;97916.25;6224150;23;20403;-84
2022/04/12 05:42:11;;;;;;;0.00;0.00;;;;;;;14.64;42.58;97914.19;6219132;23;20050;-82
2022/04/12 05:44:36;;;;;;;0.10;0.10;;;;;;;15.16;40.85;97902.31;6218881;23;20008;-83
2022/04/12 05:47:03;;;;;;;0.85;0.85;;;;;;;15.41;39.91;97902.16;6243187;23;20067;-83
2022/04/12 05:49:29;;;;;;;0.52;0.52;;;;;;;14.87;40.08;97900.88;6217485;23;20000;-82
2022/04/12 05:51:55;;;;;;;0.28;0.28;;;;;;;15.00;39.84;97901.72;6217456;23;20004;-83
2022/04/12 05:54:22;;;;;;;0.10;0.10;;;;;;;16.19;38.36;97905.09;6217931;23;20010;-83
2022/04/12 05:56:48;;;;;;;0.00;0.00;;;;;;;15.79;38.68;97911.88;6243165;23;20004;-83
2022/04/12 05:59:13;;;;;;;0.00;0.00;;;;;;;16.53;37.21;97897.88;6217522;23;20011;-84
2022/04/12 06:01:39;;;;;;;0.08;0.08;;;;;;;16.03;37.19;97900.06;6217222;23;20086;-83
2022/04/12 06:04:06;;;;;;;0.10;0.10;;;;;;;17.50;35.87;97895.25;6218199;23;20003;-83
2022/04/12 06:06:41;;;;;;;0.00;0.00;;;;;;;18.65;34.16;97890.63;6243749;23;20432;-84
2022/04/12 06:09:31;;;;;;;0.00;0.00;;;;;;;18.11;34.27;97863.81;6220169;23;20015;-84
2022/04/12 06:11:57;;;;;;;0.63;0.60;;;;;;;18.45;33.69;97892.38;6244572;23;20087;-85
2022/04/12 06:14:23;;;;;;;0.00;0.00;;;;;;;18.48;33.36;97870.44;6243716;23;20027;-84
2022/04/12 06:16:48;;;;;;;1.08;1.05;;;;;;;17.63;34.74;97891.41;6217678;23;20091;-84
2022/04/12 06:19:17;;;;;;;0.95;0.95;;;;;;;18.14;33.99;97888.78;6217946;23;20012;-84
2022/04/12 06:21:43;;;;;;;0.22;0.22;;;;;;;17.88;34.23;97891.03;6244644;23;20000;-84
2022/04/12 06:24:08;;;;;;;1.38;1.27;;;;;;;17.77;34.41;97872.16;6219750;23;20444;-84
2022/04/12 06:26:34;;;;;;;9.30;5.65;;;;;;;18.04;33.63;97897.84;6244418;23;20004;-83
2022/04/12 06:28:59;;;;;;;1.13;1.08;;;;;;;18.88;33.14;97887.59;6219614;23;20003;-83
2022/04/12 06:31:25;;;;;;;0.00;0.00;;;;;;;18.68;33.43;97896.63;6219186;23;20012;-84
2022/04/12 06:33:53;;;;;;;5.05;4.43;;;;;;;19.04;32.75;97913.31;6218422;23;20012;-84
2022/04/12 06:36:19;;;;;;;1.23;1.13;;;;;;;18.90;33.21;97869.31;6217580;23;20011;-85
2022/04/12 06:38:44;;;;;;;0.80;0.80;;;;;;;19.50;32.44;97902.75;6218582;23;20320;-83
2022/04/12 06:41:49;;;;;;;0.98;0.80;;;;;;;19.11;32.69;97898.19;6245881;23;20074;-83
2022/04/12 06:44:15;;;;;;;0.45;0.45;;;;;;;18.57;33.18;97907.59;6245190;23;20015;-84
2022/04/12 06:46:41;;;;;;;0.68;0.68;;;;;;;19.19;33.30;97903.81;6217685;23;20008;-84
2022/04/12 06:49:06;;;;;;;0.20;0.20;;;;;;;19.46;32.46;97909.44;6242802;23;20506;-85
2022/04/12 06:51:35;;;;;;;0.73;0.73;;;;;;;18.78;33.32;97908.38;6216804;23;20326;-83
2022/04/12 06:54:01;;;;;;;0.30;0.30;;;;;;;20.51;31.71;97900.34;6217236;23;20015;-84
2022/04/12 06:56:27;;;;;;;0.70;0.70;;;;;;;21.12;30.24;97891.66;6245724;23;20005;-84
2022/04/12 06:58:53;;;;;;;0.98;0.93;;;;;;;21.04;29.56;97876.91;6245085;23;20302;-83
2022/04/12 07:01:18;;;;;;;0.08;0.08;;;;;;;20.72;30.52;97881.97;6245217;23;20004;-85
2022/04/12 07:03:50;;;;;;;0.20;0.20;;;;;;;21.62;29.51;97879.28;6219591;23;20491;-83
2022/04/12 07:06:15;;;;;;;0.60;0.60;;;;;;;21.55;29.45;97876.31;6217153;23;20027;-84
2022/04/12 07:08:41;;;;;;;0.55;0.52;;;;;;;21.51;29.70;97884.94;6218934;23;20004;-84
2022/04/12 07:11:06;;;;;;;0.17;0.17;;;;;;;20.25;30.95;97877.50;6217574;23;20004;-83
2022/04/12 07:13:32;;;;;;;0.32;0.32;;;;;;;20.20;31.08;97898.81;6244061;23;20000;-84
2022/04/12 07:16:43;;;;;;;0.38;0.28;;;;;;;21.74;29.48;97891.66;6219174;23;20030;-85
2022/04/12 07:19:09;;;;;;;0.52;0.52;;;;;;;21.02;29.93;97859.03;6200714;23;20008;-85
2022/04/12 07:21:35;;;;;;;6.88;4.07;;;;;;;21.68;28.78;97859.59;6243959;23;20011;-84
2022/04/12 07:24:03;;;;;;;1.65;1.08;;;;;;;21.28;29.37;97878.25;6217209;23;20004;-83
2022/04/12 07:26:30;;;;;;;1.02;0.90;;;;;;;21.05;29.22;97865.03;6242832;23;20416;-83
2022/04/12 07:28:56;;;;;;;0.00;0.00;;;;;;;21.95;27.46;97877.72;6216810;23;20024;-83
2022/04/12 07:31:21;;;;;;;1.10;0.57;;;;;;;21.52;27.83;97867.59;6216843;23;20008;-84
2022/04/12 07:33:47;;;;;;;0.03;0.03;;;;;;;20.66;29.07;97873.53;6216395;23;20005;-84
2022/04/12 07:36:14;;;;;;;0.20;0.20;;;;;;;21.80;27.63;97871.97;6216710;23;20007;-84
2022/04/12 07:38:41;;;;;;;2.10;1.23;;;;;;;21.33;28.43;97863.16;6217358;23;20008;-84
2022/04/12 07:41:06;;;;;;;0.20;0.20;;;;;;;22.62;26.12;97864.22;6217752;23;20020;-85
2022/04/12 07:43:32;;;;;;;0.10;0.10;;;;;;;22.59;25.69;97866.41;6216754;23;20325;-84
2022/04/12 07:45:57;;;;;;;0.43;0.43;;;;;;;22.70;25.12;97852.53;6216944;23;20073;-85
2022/04/12 07:48:26;;;;;;;0.52;0.52;;;;;;;22.58;23.08;97845.59;6218557;23;20008;-84
2022/04/12 07:50:52;;;;;;;0.70;0.47;;;;;;;22.77;25.29;97850.00;6218457;23;20011;-85
2022/04/12 07:53:18;;;;;;;0.00;0.00;;;;;;;24.30;22.65;97833.91;6218196;23;20008;-84
2022/04/12 07:55:43;;;;;;;0.10;0.10;;;;;;;22.77;24.12;97823.56;6218602;23;20050;-83
2022/04/12 07:58:09;;;;;;;10.65;0.43;;;;;;;23.90;23.23;97840.25;6218130;23;20011;-85
2022/04/12 08:00:35;;;;;;;0.00;0.00;;;;;;;24.42;21.76;97829.78;6218769;23;20063;-84
2022/04/12 08:03:00;;;;;;;0.22;0.22;;;;;;;23.26;22.14;97830.03;6218478;23;20402;-84
2022/04/12 08:05:44;;;;;;;0.10;0.10;;;;;;;23.54;22.30;97825.16;6222248;23;20046;-88
2022/04/12 08:08:09;;;;;;;0.00;0.00;;;;;;;23.86;22.59;97810.69;6224595;23;20337;-84
2022/04/12 08:10:38;;;;;;;0.52;0.52;;;;;;;24.17;22.01;97814.44;6221899;23;20011;-84
2022/04/12 08:13:04;;;;;;;0.03;0.03;;;;;;;23.71;21.64;97810.50;6220379;23;20341;-85
2022/04/12 08:15:29;;;;;;;0.10;0.10;;;;;;;23.94;21.15;97808.78;6218904;23;20010;-84
2022/04/12 08:18:05;;;;;;;0.10;0.10;;;;;;;23.68;21.31;97791.72;6220523;23;20032;-86
2022/04/12 08:20:30;;;;;;;0.20;0.20;;;;;;;22.70;22.36;97795.25;6221385;23;20333;-84
2022/04/12 08:22:59;;;;;;;0.00;0.00;;;;;;;23.18;22.65;97828.16;6220806;23;20087;-85
2022/04/12 08:29:12;;;;;;;0.10;0.10;;;;;;;24.54;21.23;97790.06;6244873;23;20038;-85
2022/04/12 08:34:45;;;;;;;0.10;0.10;;;;;;;25.69;19.88;97783.78;6202409;23;20034;-85
2022/04/12 08:37:11;;;;;;;0.75;0.55;;;;;;;25.77;19.74;97795.56;6217729;23;20036;-84
2022/04/12 08:39:38;;;;;;;0.40;0.30;;;;;;;24.71;20.05;97791.72;6192833;23;20003;-86
2022/04/12 08:42:05;;;;;;;0.20;0.20;;;;;;;24.64;20.17;97767.97;6191683;23;20024;-85
2022/04/12 08:44:32;;;;;;;0.00;0.00;;;;;;;25.09;19.90;97789.16;6217252;23;20405;-83
2022/04/12 08:46:58;;;;;;;0.00;0.00;;;;;;;22.58;21.73;97758.34;6217298;23;20008;-84
2022/04/12 08:49:24;;;;;;;0.00;0.00;;;;;;;24.31;21.19;97782.78;6217058;23;20008;-86
2022/04/12 08:51:50;;;;;;;0.10;0.10;;;;;;;24.11;21.32;97785.91;6192530;23;20464;-85
2022/04/12 08:54:22;;;;;;;0.00;0.00;;;;;;;25.53;20.15;97781.22;6217065;23;20015;-84
2022/04/12 08:56:49;;;;;;;0.22;0.22;;;;;;;26.36;20.08;97780.09;6216893;23;20333;-84
2022/04/12 08:59:16;;;;;;;0.22;0.22;;;;;;;26.89;19.39;97787.22;6217124;23;20046;-84
2022/04/12 09:01:42;;;;;;;0.10;0.10;;;;;;;25.93;19.88;97783.63;6217200;23;20007;-84
2022/04/12 09:04:08;;;;;;;0.00;0.00;;;;;;;23.36;21.01;97769.81;6243116;23;20363;-84
2022/04/12 09:06:34;;;;;;;0.88;0.30;;;;;;;23.09;22.72;97771.84;6218311;23;20007;-83
2022/04/12 09:09:11;;;;;;;0.03;0.03;;;;;;;24.26;21.10;97781.44;6218389;23;20008;-82
2022/04/12 09:11:41;;;;;;;3.88;1.27;;;;;;;22.27;21.64;97765.38;6217763;23;20054;-83
2022/04/12 09:14:06;;;;;;;0.00;0.00;;;;;;;23.25;21.83;97756.50;6217650;23;20011;-84
2022/04/12 09:16:33;;;;;;;0.00;0.00;;;;;;;24.24;22.08;97767.06;6218016;23;20004;-84
2022/04/12 09:18:58;;;;;;;0.00;0.00;;;;;;;25.65;20.11;97763.28;6218176;23;20329;-83
2022/04/12 09:21:27;;;;;;;1.83;0.82;;;;;;;25.55;20.08;97751.72;6217715;23;20050;-83
2022/04/12 09:23:55;;;;;;;0.00;0.00;;;;;;;21.57;22.54;97764.53;6218142;23;20014;-82
2022/04/12 09:26:29;;;;;;;0.20;0.15;;;;;;;23.93;21.07;97748.84;6217703;23;20015;-82
2022/04/12 09:29:02;;;;;;;0.20;0.20;;;;;;;22.49;21.61;97732.06;6217477;23;20012;-82
2022/04/12 09:31:27;;;;;;;0.38;0.17;;;;;;;23.79;21.63;97749.53;6217988;23;20004;-82
2022/04/12 09:33:54;;;;;;;0.00;0.00;;;;;;;25.75;19.52;97744.69;6217514;23;20019;-83
2022/04/12 09:36:20;;;;;;;0.17;0.15;;;;;;;25.10;19.61;97731.47;6242479;23;20000;-83
2022/04/12 09:38:47;;;;;;;0.00;0.00;;;;;;;24.68;19.40;97733.75;6217364;23;20499;-83
2022/04/12 09:41:20;;;;;;;0.10;0.10;;;;;;;25.22;19.62;97729.19;6218238;23;20368;-82
2022/04/12 09:43:55;;;;;;;0.00;0.00;;;;;;;23.14;20.91;97731.25;6218459;23;20007;-82
2022/04/12 09:46:22;;;;;;;1.10;0.60;;;;;;;23.48;20.77;97731.13;6243886;23;20069;-83
2022/04/12 09:48:49;;;;;;;0.82;0.30;;;;;;;19.82;23.07;97732.25;6217832;23;20007;-82
2022/04/12 09:51:15;;;;;;;0.08;0.08;;;;;;;20.95;23.42;97733.66;6243332;23;20061;-82
2022/04/12 09:53:42;;;;;;;0.00;0.00;;;;;;;21.07;22.62;97721.53;6217364;23;20004;-83
2022/04/12 09:56:25;;;;;;;0.30;0.30;;;;;;;22.45;22.65;97717.06;6217600;23;20004;-82
2022/04/12 09:58:56;;;;;;;0.00;0.00;;;;;;;23.29;21.92;97703.28;6243062;23;20027;-82
2022/04/12 10:01:23;;;;;;;0.05;0.05;;;;;;;24.42;20.49;97692.16;6217362;23;20004;-82
2022/04/12 10:03:54;;;;;;;0.40;0.40;;;;;;;24.92;21.06;97706.25;6217765;23;20446;-82
2022/04/12 10:06:21;;;;;;;0.30;0.30;;;;;;;24.88;19.98;97699.47;6217165;23;20012;-82
2022/04/12 10:08:51;;;;;;;1.05;0.57;;;;;;;23.70;21.30;97697.66;6218053;23;20084;-82
2022/04/12 10:11:17;;;;;;;1.33;0.25;;;;;;;23.44;20.57;97686.03;6217364;23;20054;-83
2022/04/12 10:13:44;;;;;;;0.30;0.30;;;;;;;23.64;21.13;97672.91;6217024;23;20451;-83
2022/04/12 10:16:10;;;;;;;0.00;0.00;;;;;;;24.58;21.41;97675.69;6216510;23;20004;-83
2022/04/12 10:18:36;;;;;;;0.10;0.10;;;;;;;25.29;20.03;97686.31;6242153;23;20130;-83
2022/04/12 10:21:02;;;;;;;0.10;0.10;;;;;;;23.07;20.90;97667.41;6216970;23;20046;-81
2022/04/12 10:23:29;;;;;;;0.00;0.00;;;;;;;24.37;20.58;97659.88;6217258;23;20047;-82
2022/04/12 10:26:01;;;;;;;0.00;0.00;;;;;;;25.95;19.97;97665.50;6242242;23;20031;-84
2022/04/12 10:28:27;;;;;;;;;;;;;;;26.91;19.23;97664.31;6217295;23;20408;-82
2022/04/12 10:31:17;;;;;;;0.05;0.05;;;;;;;26.69;18.42;97658.94;6217716;23;19962;-83
2022/04/12 10:34:02;;;;;;;0.28;0.28;;;;;;;26.21;18.83;97644.81;6217584;23;20011;-82
2022/04/12 10:37:04;;;;;;;0.13;0.13;;;;;;;25.54;18.53;97645.88;6243153;23;20014;-84
2022/04/12 10:39:34;;;;;;;;;;;;;;;26.98;18.38;97641.56;6243479;23;20004;-83
2022/04/12 10:42:08;;;;;;;0.17;0.17;;;;;;;26.27;18.74;97637.75;6242768;23;19917;-82
2022/04/12 10:44:39;;;;;;;0.10;0.10;;;;;;;25.36;18.52;97629.78;6217604;23;20083;-82
2022/04/12 10:47:05;;;;;;;0.10;0.10;;;;;;;25.04;19.72;97638.28;6217741;23;20451;-82
2022/04/12 10:49:36;;;;;;;0.00;0.00;;;;;;;25.48;19.66;97638.38;6217606;23;20086;-82
2022/04/12 10:52:02;;;;;;;0.20;0.10;;;;;;;25.87;18.38;97628.09;6217259;23;20004;-82
2022/04/12 10:54:34;;;;;;;0.15;0.15;;;;;;;25.39;19.31;97636.75;6217334;23;20008;-82
2022/04/12 10:57:18;;;;;;;0.00;0.00;;;;;;;26.37;18.57;97628.16;6217603;23;20004;-83
2022/04/12 10:59:57;;;;;;;0.20;0.20;;;;;;;25.09;19.48;97630.34;6242396;23;20092;-83
2022/04/12 11:02:29;;;;;;;0.03;0.03;;;;;;;25.97;18.87;97628.63;6217171;23;20007;-83
2022/04/12 11:04:55;;;;;;;0.00;0.00;;;;;;;25.30;18.78;97619.56;6242442;23;20467;-83
2022/04/12 11:07:36;;;;;;;0.10;0.10;;;;;;;25.70;18.65;97610.97;6217191;23;20012;-83
2022/04/12 11:10:06;;;;;;;22.08;5.18;;;;;;;25.87;18.66;97593.28;6222081;23;20014;-82
2022/04/12 11:12:41;;;;;;;0.00;0.00;;;;;;;27.08;18.20;97604.47;6241759;23;20334;-82
2022/04/12 11:15:29;;;;;;;0.08;0.08;;;;;;;23.77;19.89;97585.78;6242594;23;20004;-81
2022/04/12 11:21:59;;;;;;;0.00;0.00;;;;;;;24.31;20.00;97562.13;6244499;23;20066;-82
2022/04/12 11:24:25;;;;;;;0.10;0.10;;;;;;;26.05;19.18;97573.72;6242107;23;20074;-83
2022/04/12 11:27:10;;;;;;;0.60;0.30;;;;;;;27.10;18.07;97593.31;6216114;23;20436;-81
2022/04/12 11:29:37;;;;;;;0.75;0.43;;;;;;;25.11;19.68;97584.47;6216945;23;20011;-83
2022/04/12 11:32:04;;;;;;;0.10;0.10;;;;;;;24.64;19.48;97579.19;6216729;23;20039;-83
2022/04/12 11:34:31;;;;;;;0.00;0.00;;;;;;;25.60;19.02;97576.63;6217277;23;20035;-81
2022/04/12 11:37:08;;;;;;;0.10;0.10;;;;;;;25.08;19.40;97569.25;6217394;23;20015;-84
2022/04/12 11:39:40;;;;;;;0.20;0.20;;;;;;;25.40;18.79;97567.25;6244946;23;20107;-82
2022/04/12 11:42:12;;;;;;;0.08;0.08;;;;;;;26.37;17.90;97569.69;6220758;23;20020;-81
2022/04/12 11:44:37;;;;;;;0.00;0.00;;;;;;;24.29;19.86;97553.28;6218841;23;20008;-82
2022/04/12 11:47:15;;;;;;;0.00;0.00;;;;;;;26.33;18.24;97561.00;6219013;23;20355;-83
2022/04/12 11:49:42;;;;;;;0.20;0.20;;;;;;;26.68;18.33;97561.16;6220844;23;20004;-83
2022/04/12 11:52:15;;;;;;;0.10;0.10;;;;;;;24.43;19.43;97557.09;6218674;23;20083;-82